Time;durP1;ratioP1;P1;durP2;ratioP2;P2;SDS_P1;SDS_P2;PMS_P1;PMS_P2;Temp;Humidity;BMP_temperature;BMP_pressure;BME280_temperature;BME280_humidity;BME280_pressure;Samples;Min_cycle;Max_cycle;Signal;HPM_P1;HPM_P2
2024/04/02 00:01:34;;;;;;;8.07;3.47;;;9.00;90.70;;;;;;5059874;28;20043;-76
2024/04/02 00:04:12;;;;;;;5.68;3.00;;;9.00;90.60;;;;;;5060888;28;20453;-77
2024/04/02 00:06:37;;;;;;;6.25;3.08;;;9.00;90.60;;;;;;5058153;28;20036;-77
2024/04/02 00:09:03;;;;;;;6.75;3.30;;;9.00;90.60;;;;;;5051399;28;20025;-75
2024/04/02 00:11:30;;;;;;;5.90;3.25;;;9.00;90.60;;;;;;5052169;28;20029;-76
2024/04/02 00:13:56;;;;;;;6.20;2.92;;;8.90;90.70;;;;;;5062406;28;20033;-76
2024/04/02 00:16:22;;;;;;;6.47;3.33;;;9.00;90.70;;;;;;5059125;28;20053;-76
2024/04/02 00:18:48;;;;;;;7.45;3.20;;;8.90;90.50;;;;;;5067996;28;20060;-75
2024/04/02 00:21:13;;;;;;;5.60;2.95;;;8.90;90.60;;;;;;5060327;28;20086;-75
2024/04/02 00:23:41;;;;;;;7.35;2.97;;;8.90;90.70;;;;;;5056644;28;20021;-74
2024/04/02 00:26:07;;;;;;;5.65;3.13;;;8.90;90.70;;;;;;5063628;28;20060;-76
2024/04/02 00:28:33;;;;;;;6.00;3.30;;;8.90;90.80;;;;;;5061401;28;20071;-76
2024/04/02 00:31:00;;;;;;;6.10;2.78;;;8.90;90.70;;;;;;5058338;28;20032;-77
2024/04/02 00:33:29;;;;;;;8.00;2.97;;;8.90;90.70;;;;;;5061003;28;20079;-78
2024/04/02 00:36:02;;;;;;;6.97;3.13;;;8.90;90.80;;;;;;5059440;28;20033;-75
2024/04/02 00:38:27;;;;;;;8.95;3.20;;;8.90;90.80;;;;;;5058654;28;20020;-75
2024/04/02 00:40:53;;;;;;;5.95;2.85;;;8.90;90.80;;;;;;5058850;28;20488;-74
2024/04/02 00:43:19;;;;;;;7.90;2.92;;;8.90;90.70;;;;;;5059081;28;20046;-77
2024/04/02 00:45:44;;;;;;;5.03;2.55;;;8.90;90.60;;;;;;5059540;28;20040;-75
2024/04/02 00:48:10;;;;;;;5.97;2.88;;;8.90;90.70;;;;;;5059194;28;20028;-78
2024/04/02 00:50:36;;;;;;;7.70;2.90;;;8.90;90.70;;;;;;5058064;28;20047;-74
2024/04/02 00:53:02;;;;;;;6.30;2.75;;;8.90;90.80;;;;;;5060704;28;20089;-74
2024/04/02 00:55:29;;;;;;;6.25;2.42;;;8.90;90.70;;;;;;5057423;28;20626;-78
2024/04/02 00:57:55;;;;;;;5.40;2.35;;;8.90;90.70;;;;;;5060683;28;20020;-79
2024/04/02 01:00:21;;;;;;;4.75;2.38;;;9.00;90.70;;;;;;5060203;28;20292;-76
2024/04/02 01:02:49;;;;;;;6.35;2.70;;;9.00;90.80;;;;;;5044233;28;20048;-80
2024/04/02 01:05:15;;;;;;;6.57;2.50;;;8.90;90.60;;;;;;5058507;28;20024;-76
2024/04/02 01:07:42;;;;;;;5.32;2.42;;;8.90;90.80;;;;;;5059373;28;20035;-79
2024/04/02 01:10:07;;;;;;;7.03;2.60;;;9.00;90.80;;;;;;5058050;28;20039;-76
2024/04/02 01:12:34;;;;;;;4.70;2.60;;;8.90;90.80;;;;;;5054333;28;20044;-76
2024/04/02 01:15:00;;;;;;;7.55;2.30;;;8.90;90.80;;;;;;5056236;28;20033;-78
2024/04/02 01:17:26;;;;;;;7.00;3.03;;;8.90;90.80;;;;;;5057660;28;20458;-74
2024/04/02 01:19:51;;;;;;;5.70;2.25;;;8.90;90.90;;;;;;5053364;28;20039;-76
2024/04/02 01:22:17;;;;;;;8.65;2.40;;;8.90;91.00;;;;;;5045916;28;20396;-78
2024/04/02 01:24:51;;;;;;;6.88;2.40;;;8.90;91.00;;;;;;5056945;28;20044;-74
2024/04/02 01:27:17;;;;;;;6.30;2.53;;;8.90;90.90;;;;;;5055924;28;20396;-76
2024/04/02 01:29:43;;;;;;;6.57;2.42;;;8.90;91.00;;;;;;5060331;28;20037;-76
2024/04/02 01:32:08;;;;;;;6.43;2.40;;;8.90;91.00;;;;;;5063120;28;20028;-77
2024/04/02 01:34:34;;;;;;;5.88;2.22;;;8.80;91.10;;;;;;5067371;28;20020;-75
2024/04/02 01:36:59;;;;;;;4.80;1.92;;;8.80;91.10;;;;;;5053838;28;20037;-77
2024/04/02 01:39:25;;;;;;;7.45;2.22;;;8.90;91.10;;;;;;5059773;28;20132;-74
2024/04/02 01:41:51;;;;;;;6.22;2.40;;;8.80;91.20;;;;;;5059015;28;20847;-77
2024/04/02 01:44:16;;;;;;;5.25;2.35;;;8.80;91.30;;;;;;5059508;28;20373;-79
2024/04/02 01:46:42;;;;;;;7.30;2.40;;;8.80;91.30;;;;;;5049512;28;20562;-74
2024/04/02 01:49:07;;;;;;;5.68;2.00;;;8.80;91.30;;;;;;5058693;28;20027;-80
2024/04/02 01:51:33;;;;;;;7.38;2.25;;;8.70;91.40;;;;;;5054901;28;20027;-74
2024/04/02 01:53:59;;;;;;;5.05;2.22;;;8.70;91.50;;;;;;5057025;28;20453;-76
2024/04/02 01:56:24;;;;;;;6.82;2.50;;;8.70;91.60;;;;;;5059239;28;20105;-79
2024/04/02 01:58:50;;;;;;;7.35;2.30;;;8.70;91.80;;;;;;5059703;28;20032;-78
2024/04/02 02:01:15;;;;;;;6.22;2.60;;;8.70;91.90;;;;;;5056856;28;20115;-77
2024/04/02 02:03:41;;;;;;;5.55;2.33;;;8.70;91.90;;;;;;5057451;28;20029;-75
2024/04/02 02:06:07;;;;;;;6.25;2.30;;;8.70;91.90;;;;;;5071394;28;20049;-79
2024/04/02 02:08:32;;;;;;;7.88;2.35;;;8.70;92.00;;;;;;5061223;28;20020;-77
2024/04/02 02:11:03;;;;;;;6.97;2.35;;;8.70;91.90;;;;;;5048440;28;20045;-77
2024/04/02 02:13:29;;;;;;;5.50;1.98;;;8.70;92.00;;;;;;5057801;28;20035;-76
2024/04/02 02:15:59;;;;;;;6.47;2.50;;;8.60;92.10;;;;;;5041090;28;20220;-79
2024/04/02 02:18:26;;;;;;;8.48;2.33;;;8.60;92.20;;;;;;5053866;28;20020;-79
2024/04/02 02:20:52;;;;;;;8.95;2.28;;;8.60;92.30;;;;;;5058265;28;20705;-78
2024/04/02 02:23:19;;;;;;;8.70;2.60;;;8.60;92.30;;;;;;5054937;28;20214;-78
2024/04/02 02:25:45;;;;;;;6.55;2.40;;;8.60;92.40;;;;;;5060771;28;20164;-75
2024/04/02 02:28:10;;;;;;;6.20;2.25;;;8.60;92.40;;;;;;5057745;28;20032;-77
2024/04/02 02:30:36;;;;;;;9.05;2.75;;;8.60;92.40;;;;;;5062095;28;20041;-75
2024/04/02 02:33:02;;;;;;;7.82;2.55;;;8.50;92.50;;;;;;5071265;28;20070;-76
2024/04/02 02:35:27;;;;;;;6.97;2.20;;;8.50;92.50;;;;;;5063567;28;20322;-76
2024/04/02 02:37:53;;;;;;;6.90;2.15;;;8.60;92.70;;;;;;5066207;28;20015;-76
2024/04/02 02:40:19;;;;;;;7.70;2.65;;;8.60;92.70;;;;;;5065687;28;20468;-75
2024/04/02 02:42:44;;;;;;;8.77;2.20;;;8.60;92.70;;;;;;5059164;28;20028;-76
2024/04/02 02:45:10;;;;;;;10.63;2.60;;;8.60;92.70;;;;;;5065016;28;20060;-79
2024/04/02 02:47:36;;;;;;;5.70;1.98;;;8.60;92.70;;;;;;5077438;28;20129;-75
2024/04/02 02:50:03;;;;;;;9.70;2.50;;;8.60;92.80;;;;;;5066034;28;20133;-74
2024/04/02 02:52:29;;;;;;;7.53;2.15;;;8.60;92.80;;;;;;5064836;28;20379;-73
2024/04/02 02:54:55;;;;;;;6.43;2.28;;;8.50;92.90;;;;;;5059628;28;20029;-79
2024/04/02 02:57:20;;;;;;;8.60;2.60;;;8.60;93.00;;;;;;5070711;28;20036;-75
2024/04/02 02:59:46;;;;;;;5.38;2.28;;;8.50;93.00;;;;;;5068059;28;20059;-77
2024/04/02 03:02:12;;;;;;;9.07;2.65;;;8.50;93.20;;;;;;5070309;28;20060;-76
2024/04/02 03:04:38;;;;;;;5.72;2.33;;;8.60;93.20;;;;;;5067981;28;20040;-74
2024/04/02 03:07:04;;;;;;;7.13;2.70;;;8.50;93.30;;;;;;5063988;28;20036;-75
2024/04/02 03:09:29;;;;;;;7.28;2.50;;;8.50;93.30;;;;;;5071111;28;20020;-75
2024/04/02 03:11:55;;;;;;;7.78;2.42;;;8.50;93.30;;;;;;5068413;28;20125;-76
2024/04/02 03:14:21;;;;;;;7.90;2.60;;;8.50;93.40;;;;;;5065536;28;20021;-79
2024/04/02 03:16:46;;;;;;;8.52;2.42;;;8.50;93.50;;;;;;5066083;28;20040;-78
2024/04/02 03:19:12;;;;;;;9.98;2.50;;;8.50;93.60;;;;;;5064161;28;20036;-75
2024/04/02 03:21:38;;;;;;;9.30;3.10;;;8.40;93.50;;;;;;5070082;28;20040;-76
2024/04/02 03:24:04;;;;;;;9.57;2.53;;;8.40;93.70;;;;;;5065521;28;20629;-74
2024/04/02 03:26:30;;;;;;;10.75;2.35;;;8.40;93.70;;;;;;5063883;28;20130;-79
2024/04/02 03:28:55;;;;;;;9.10;2.85;;;8.40;93.70;;;;;;5071209;28;20052;-78
2024/04/02 03:31:21;;;;;;;9.52;2.63;;;8.40;93.70;;;;;;5073154;28;20029;-73
2024/04/02 03:33:47;;;;;;;9.70;2.92;;;8.40;93.70;;;;;;5066173;28;20449;-78
2024/04/02 03:36:13;;;;;;;8.82;2.78;;;8.40;93.80;;;;;;5064784;28;20028;-75
2024/04/02 03:38:39;;;;;;;9.45;3.00;;;8.40;93.80;;;;;;5055806;28;20036;-76
2024/04/02 03:41:08;;;;;;;12.70;3.58;;;8.30;93.70;;;;;;5066053;28;20759;-76
2024/04/02 03:43:34;;;;;;;9.55;2.65;;;8.30;93.80;;;;;;5066329;28;20253;-78
2024/04/02 03:46:06;;;;;;;12.75;3.60;;;8.30;93.80;;;;;;5057557;28;20039;-74
2024/04/02 03:48:32;;;;;;;13.13;3.10;;;8.30;94.00;;;;;;5060965;28;20633;-76
2024/04/02 03:50:58;;;;;;;11.02;2.80;;;8.40;94.00;;;;;;5061967;28;20048;-75
2024/04/02 03:53:24;;;;;;;10.27;2.40;;;8.40;93.80;;;;;;5062328;28;20065;-75
2024/04/02 03:56:08;;;;;;;11.48;3.08;;;8.40;93.80;;;;;;5055592;28;20461;-75
2024/04/02 03:58:33;;;;;;;10.88;2.67;;;8.40;93.80;;;;;;5058939;28;20028;-73
2024/04/02 04:00:59;;;;;;;11.90;3.20;;;8.40;93.70;;;;;;5057335;28;20028;-74
2024/04/02 04:03:26;;;;;;;11.55;3.10;;;8.40;93.60;;;;;;5061448;28;20012;-74
2024/04/02 04:06:01;;;;;;;15.13;3.17;;;8.30;93.70;;;;;;5056719;28;20116;-77
2024/04/02 04:08:27;;;;;;;13.18;4.47;;;8.30;93.70;;;;;;5051039;28;20016;-76
2024/04/02 04:10:53;;;;;;;10.07;3.90;;;8.30;93.70;;;;;;5053934;28;20036;-74
2024/04/02 04:13:19;;;;;;;10.20;2.47;;;8.30;93.70;;;;;;5053741;28;20024;-76
2024/04/02 04:15:59;;;;;;;10.70;3.00;;;8.30;93.60;;;;;;5055382;28;20072;-74
2024/04/02 04:18:26;;;;;;;11.13;2.85;;;8.30;93.70;;;;;;5050791;28;20024;-75
2024/04/02 04:20:56;;;;;;;12.50;2.85;;;8.20;93.50;;;;;;5057056;28;20032;-76
2024/04/02 04:23:22;;;;;;;19.10;11.43;;;8.30;93.60;;;;;;5057625;28;20074;-74
2024/04/02 04:25:59;;;;;;;13.52;3.33;;;8.20;93.60;;;;;;5058258;28;20810;-76
2024/04/02 04:28:26;;;;;;;16.55;3.10;;;8.20;93.70;;;;;;5057473;28;20036;-77
2024/04/02 04:31:00;;;;;;;14.35;3.22;;;8.20;93.60;;;;;;5055265;28;20135;-74
2024/04/02 04:33:26;;;;;;;14.10;3.25;;;8.20;93.60;;;;;;5060452;28;20017;-75
2024/04/02 04:35:53;;;;;;;14.63;3.33;;;8.20;93.60;;;;;;5051555;28;20047;-77
2024/04/02 04:38:20;;;;;;;16.60;3.88;;;8.20;93.60;;;;;;5058519;28;20024;-75
2024/04/02 04:40:46;;;;;;;16.55;3.28;;;8.20;93.60;;;;;;5056608;28;20041;-75
2024/04/02 04:43:14;;;;;;;14.95;3.70;;;8.30;93.50;;;;;;5059603;28;20060;-76
2024/04/02 04:45:40;;;;;;;16.05;3.83;;;8.20;93.50;;;;;;5057051;28;20056;-74
2024/04/02 04:48:07;;;;;;;18.27;4.65;;;8.20;93.40;;;;;;5060454;28;20062;-73
2024/04/02 04:50:33;;;;;;;10.05;3.33;;;8.20;93.30;;;;;;5053970;28;20107;-76
2024/04/02 04:53:00;;;;;;;14.43;3.38;;;8.30;93.30;;;;;;5050949;28;20029;-78
2024/04/02 04:55:30;;;;;;;13.60;3.25;;;8.30;93.30;;;;;;5057268;28;20137;-75
2024/04/02 04:57:55;;;;;;;13.57;3.28;;;8.20;93.30;;;;;;5059650;28;20440;-78
2024/04/02 05:00:21;;;;;;;20.40;3.90;;;8.20;93.20;;;;;;5058635;28;20016;-75
2024/04/02 05:02:47;;;;;;;14.48;3.70;;;8.20;93.20;;;;;;5058792;28;20063;-75
2024/04/02 05:05:12;;;;;;;13.98;3.67;;;8.30;93.20;;;;;;5060818;28;20060;-75
2024/04/02 05:07:38;;;;;;;16.73;4.40;;;8.30;93.10;;;;;;5055753;28;20051;-74
2024/04/02 05:10:04;;;;;;;15.98;3.35;;;8.30;93.10;;;;;;5059531;28;20024;-77
2024/04/02 05:12:29;;;;;;;17.85;3.97;;;8.30;93.00;;;;;;5058472;28;20036;-77
2024/04/02 05:14:55;;;;;;;15.75;3.25;;;8.40;93.00;;;;;;5055195;28;20103;-78
2024/04/02 05:17:21;;;;;;;14.07;3.47;;;8.40;92.90;;;;;;5058590;28;20386;-77
2024/04/02 05:19:46;;;;;;;13.52;3.25;;;8.50;92.80;;;;;;5059142;28;20029;-75
2024/04/02 05:22:12;;;;;;;16.92;3.45;;;8.40;92.70;;;;;;5058163;28;20040;-75
2024/04/02 05:24:37;;;;;;;16.85;3.95;;;8.40;92.70;;;;;;5059760;28;20051;-74
2024/04/02 05:27:03;;;;;;;15.43;3.90;;;8.50;92.50;;;;;;5055919;28;20032;-73
2024/04/02 05:29:30;;;;;;;19.55;4.22;;;8.50;92.50;;;;;;5055965;28;20284;-77
2024/04/02 05:31:56;;;;;;;16.35;3.28;;;8.50;92.50;;;;;;5057647;28;20405;-74
2024/04/02 05:34:21;;;;;;;14.65;4.50;;;8.50;92.50;;;;;;5062786;28;20105;-75
2024/04/02 05:36:47;;;;;;;12.88;3.72;;;8.50;92.30;;;;;;5059097;28;20508;-76
2024/04/02 05:39:13;;;;;;;14.13;4.13;;;8.60;92.20;;;;;;5059398;28;20127;-74
2024/04/02 05:41:38;;;;;;;11.55;3.47;;;8.60;92.20;;;;;;5056594;28;20029;-73
2024/04/02 05:44:04;;;;;;;15.40;3.92;;;8.50;92.20;;;;;;5058890;28;20044;-76
2024/04/02 05:46:30;;;;;;;12.93;3.65;;;8.60;92.10;;;;;;5048186;28;20239;-76
2024/04/02 05:48:55;;;;;;;17.90;3.35;;;8.60;92.00;;;;;;5058459;28;20040;-76
2024/04/02 05:51:21;;;;;;;15.95;3.90;;;8.60;92.00;;;;;;5065965;28;20036;-76
2024/04/02 05:53:46;;;;;;;18.83;3.83;;;8.60;91.90;;;;;;5058297;28;20066;-77
2024/04/02 05:56:13;;;;;;;20.48;4.15;;;8.60;91.90;;;;;;5057898;28;20058;-74
2024/04/02 05:58:38;;;;;;;15.68;3.95;;;8.60;91.90;;;;;;5055998;28;20024;-74
2024/04/02 06:01:06;;;;;;;19.88;3.58;;;8.70;91.80;;;;;;5051181;28;20344;-77
2024/04/02 06:03:31;;;;;;;19.35;4.07;;;8.70;91.70;;;;;;5057446;28;20024;-76
2024/04/02 06:05:58;;;;;;;13.60;3.88;;;8.70;91.80;;;;;;5057334;28;20024;-76
2024/04/02 06:08:24;;;;;;;15.68;4.10;;;8.80;91.80;;;;;;5059208;28;20050;-79
2024/04/02 06:10:49;;;;;;;19.13;4.28;;;8.90;91.60;;;;;;5057513;28;20040;-76
2024/04/02 06:13:15;;;;;;;11.88;3.55;;;9.10;91.30;;;;;;5057265;28;20028;-77
2024/04/02 06:15:40;;;;;;;18.70;4.03;;;9.10;91.10;;;;;;5058233;28;20132;-76
2024/04/02 06:18:06;;;;;;;20.73;4.82;;;9.20;90.80;;;;;;5059940;28;20059;-76
2024/04/02 06:20:32;;;;;;;14.48;4.20;;;9.30;90.50;;;;;;5054408;28;20301;-75
2024/04/02 06:22:58;;;;;;;13.82;3.75;;;9.30;90.30;;;;;;5059636;28;20032;-73
2024/04/02 06:25:23;;;;;;;14.52;3.55;;;9.30;90.20;;;;;;5055189;28;20632;-75
2024/04/02 06:27:49;;;;;;;15.45;4.20;;;9.30;90.20;;;;;;5058801;28;20039;-78
2024/04/02 06:30:15;;;;;;;16.50;4.18;;;9.40;90.10;;;;;;5044138;28;20025;-77
2024/04/02 06:32:40;;;;;;;15.63;3.75;;;9.30;90.10;;;;;;5060979;28;20032;-75
2024/04/02 06:35:06;;;;;;;15.02;4.13;;;9.30;90.00;;;;;;5054789;28;20029;-75
2024/04/02 06:37:32;;;;;;;14.35;3.38;;;9.40;90.00;;;;;;5056053;28;20035;-76
2024/04/02 06:39:57;;;;;;;15.68;3.78;;;9.50;90.00;;;;;;5059924;28;20029;-77
2024/04/02 06:42:23;;;;;;;10.98;3.83;;;9.70;90.00;;;;;;5057827;28;20055;-74
2024/04/02 06:44:49;;;;;;;14.98;3.63;;;9.90;89.60;;;;;;5059861;28;20025;-75
2024/04/02 06:47:15;;;;;;;15.23;3.90;;;10.00;88.90;;;;;;5055668;28;20064;-77
2024/04/02 06:49:41;;;;;;;15.63;3.72;;;10.10;88.60;;;;;;5059425;28;20652;-75
2024/04/02 06:52:07;;;;;;;13.90;3.20;;;10.30;88.60;;;;;;5054812;28;20151;-75
2024/04/02 06:54:33;;;;;;;19.50;3.92;;;10.50;87.80;;;;;;5059517;28;20104;-75
2024/04/02 06:56:58;;;;;;;14.30;3.83;;;10.60;87.20;;;;;;5056500;28;20384;-74
2024/04/02 06:59:24;;;;;;;17.50;3.92;;;10.60;87.40;;;;;;5058693;28;20499;-77
2024/04/02 07:01:50;;;;;;;15.18;3.53;;;10.50;88.10;;;;;;5055655;28;20037;-73
2024/04/02 07:04:15;;;;;;;13.82;3.20;;;10.50;88.80;;;;;;5056629;28;20020;-73
2024/04/02 07:06:42;;;;;;;16.20;3.80;;;10.40;89.30;;;;;;5054763;28;20044;-74
2024/04/02 07:09:08;;;;;;;12.63;3.38;;;10.40;89.30;;;;;;5055862;28;20083;-75
2024/04/02 07:11:34;;;;;;;16.60;3.60;;;10.40;89.50;;;;;;5056408;28;20577;-74
2024/04/02 07:14:01;;;;;;;15.38;3.78;;;10.40;89.60;;;;;;5059371;28;20031;-73
2024/04/02 07:16:27;;;;;;;13.68;3.47;;;10.40;89.60;;;;;;5056514;28;20457;-73
2024/04/02 07:18:52;;;;;;;14.77;3.58;;;10.40;89.70;;;;;;5061831;28;20082;-75
2024/04/02 07:21:18;;;;;;;17.75;4.15;;;10.30;89.90;;;;;;5043408;28;20036;-75
2024/04/02 07:23:44;;;;;;;17.52;4.32;;;10.40;89.80;;;;;;5060246;28;20036;-75
2024/04/02 07:26:10;;;;;;;11.75;3.47;;;10.40;89.50;;;;;;5055287;28;20075;-74
2024/04/02 07:28:35;;;;;;;13.45;3.30;;;10.50;89.20;;;;;;5055961;28;20032;-73
2024/04/02 07:31:01;;;;;;;17.27;4.20;;;10.60;89.30;;;;;;5057739;28;20027;-73
2024/04/02 07:33:27;;;;;;;15.85;4.10;;;10.70;89.10;;;;;;5060230;28;20526;-74
2024/04/02 07:35:56;;;;;;;17.60;4.00;;;10.80;88.60;;;;;;5060397;28;20032;-74
2024/04/02 07:38:22;;;;;;;17.05;3.95;;;10.70;88.40;;;;;;5066626;28;20020;-75
2024/04/02 07:40:48;;;;;;;15.57;3.92;;;10.70;88.60;;;;;;5057684;28;20479;-73
2024/04/02 07:43:13;;;;;;;19.60;5.05;;;10.60;88.60;;;;;;5059541;28;20768;-72
2024/04/02 07:45:39;;;;;;;15.88;3.63;;;10.60;88.70;;;;;;5058083;28;20032;-75
2024/04/02 07:48:06;;;;;;;13.35;3.08;;;10.50;88.80;;;;;;5042374;28;20031;-75
2024/04/02 07:50:35;;;;;;;15.95;3.97;;;10.60;88.80;;;;;;5057431;28;20031;-75
2024/04/02 07:53:01;;;;;;;11.13;3.40;;;10.70;88.60;;;;;;5054153;28;20030;-74
2024/04/02 07:55:26;;;;;;;13.82;3.28;;;10.70;88.00;;;;;;5057364;28;20020;-74
2024/04/02 07:57:52;;;;;;;11.15;2.90;;;10.80;87.90;;;;;;5058533;28;20035;-74
2024/04/02 08:00:18;;;;;;;18.42;4.60;;;10.80;87.50;;;;;;5056555;28;20060;-76
2024/04/02 08:02:47;;;;;;;14.23;3.42;;;10.90;87.50;;;;;;5054084;28;20064;-75
2024/04/02 08:05:14;;;;;;;13.18;2.92;;;10.90;87.10;;;;;;5055697;28;20025;-74
2024/04/02 08:07:41;;;;;;;12.98;3.47;;;10.90;87.20;;;;;;5056139;28;20033;-74
2024/04/02 08:10:07;;;;;;;14.25;3.13;;;10.80;87.60;;;;;;5057018;28;20050;-73
2024/04/02 08:12:33;;;;;;;17.70;3.92;;;10.80;87.70;;;;;;5057682;28;20036;-73
2024/04/02 08:14:58;;;;;;;14.60;3.88;;;10.80;88.00;;;;;;5056919;28;20411;-75
2024/04/02 08:17:24;;;;;;;16.05;3.55;;;10.80;87.80;;;;;;5057585;28;20455;-75
2024/04/02 08:19:50;;;;;;;12.23;3.22;;;10.70;88.10;;;;;;5059347;28;20124;-73
2024/04/02 08:22:18;;;;;;;11.82;3.20;;;10.70;88.50;;;;;;5058032;28;20104;-72
2024/04/02 08:24:43;;;;;;;18.55;3.70;;;10.60;88.80;;;;;;5057287;28;20053;-75
2024/04/02 08:27:09;;;;;;;14.48;3.15;;;10.50;89.30;;;;;;5053358;28;20024;-76
2024/04/02 08:29:35;;;;;;;15.35;3.45;;;10.40;89.70;;;;;;5058094;28;20037;-74
2024/04/02 08:32:00;;;;;;;15.30;3.35;;;10.40;90.10;;;;;;5042567;28;20028;-74
2024/04/02 08:34:26;;;;;;;14.27;2.95;;;10.30;90.50;;;;;;5060760;28;20094;-73
2024/04/02 08:36:52;;;;;;;15.40;3.20;;;10.20;90.90;;;;;;5055830;28;20127;-75
2024/04/02 08:39:17;;;;;;;15.70;4.53;;;10.20;91.20;;;;;;5056374;28;20401;-75
2024/04/02 08:41:43;;;;;;;13.68;3.15;;;10.20;91.40;;;;;;5057693;28;20047;-76
2024/04/02 08:44:09;;;;;;;19.48;3.95;;;10.10;91.60;;;;;;5059589;28;20074;-75
2024/04/02 08:46:35;;;;;;;13.00;3.47;;;10.20;91.50;;;;;;5057796;28;20043;-77
2024/04/02 08:49:02;;;;;;;13.65;3.65;;;10.20;91.70;;;;;;5058873;28;20202;-77
2024/04/02 08:51:29;;;;;;;13.60;3.58;;;10.20;91.90;;;;;;5059082;28;20223;-75
2024/04/02 08:53:55;;;;;;;12.27;3.47;;;10.30;92.00;;;;;;5059859;28;20036;-76
2024/04/02 08:56:21;;;;;;;14.38;4.22;;;10.30;92.00;;;;;;5056586;28;20055;-76
2024/04/02 08:58:47;;;;;;;14.38;4.10;;;10.30;92.30;;;;;;5062079;28;20484;-77
2024/04/02 09:01:14;;;;;;;13.82;4.03;;;10.30;92.40;;;;;;5061700;28;20032;-76
2024/04/02 09:03:40;;;;;;;13.27;3.30;;;10.30;92.40;;;;;;5058588;28;20807;-75
2024/04/02 09:06:06;;;;;;;15.57;3.85;;;10.30;92.40;;;;;;5055979;28;20052;-78
2024/04/02 09:08:47;;;;;;;14.32;3.53;;;10.40;92.50;;;;;;5042660;28;20672;-76
2024/04/02 09:11:14;;;;;;;18.85;4.40;;;10.30;92.40;;;;;;5041381;28;20040;-75
2024/04/02 09:13:40;;;;;;;13.73;3.85;;;10.40;92.60;;;;;;5058373;28;20016;-75
2024/04/02 09:16:07;;;;;;;15.50;3.80;;;10.50;92.70;;;;;;5043419;28;20035;-76
2024/04/02 09:18:37;;;;;;;15.43;4.18;;;10.60;92.50;;;;;;5059088;28;20056;-77
2024/04/02 09:21:03;;;;;;;17.75;4.10;;;10.70;92.40;;;;;;5055353;28;20025;-74
2024/04/02 09:23:29;;;;;;;13.88;3.80;;;10.80;91.70;;;;;;5057088;28;20028;-77
2024/04/02 09:25:56;;;;;;;19.45;4.90;;;11.00;91.60;;;;;;5055368;28;20926;-75
2024/04/02 09:28:22;;;;;;;16.02;4.07;;;10.90;90.90;;;;;;5053207;28;20385;-75
2024/04/02 09:30:47;;;;;;;16.52;3.63;;;11.10;91.00;;;;;;5055241;28;20048;-77
2024/04/02 09:33:16;;;;;;;19.77;4.43;;;11.20;90.80;;;;;;5058409;28;20194;-76
2024/04/02 09:36:00;;;;;;;13.70;3.65;;;11.40;90.10;;;;;;5055971;28;20024;-77
2024/04/02 09:38:27;;;;;;;15.13;4.40;;;11.40;89.90;;;;;;5054609;28;20042;-77
2024/04/02 09:40:54;;;;;;;16.20;3.47;;;11.40;89.40;;;;;;5054810;28;20121;-76
2024/04/02 09:43:20;;;;;;;14.77;3.35;;;11.30;89.40;;;;;;5052585;28;20027;-77
2024/04/02 09:45:48;;;;;;;16.88;4.18;;;11.50;89.40;;;;;;5049101;28;20021;-77
2024/04/02 09:48:16;;;;;;;14.00;3.30;;;11.50;89.50;;;;;;5058358;28;20543;-77
2024/04/02 09:50:43;;;;;;;17.77;4.10;;;11.70;89.60;;;;;;5058519;28;20028;-78
2024/04/02 09:53:11;;;;;;;12.07;3.50;;;11.90;89.40;;;;;;5040309;28;20032;-76
2024/04/02 09:55:39;;;;;;;13.98;3.70;;;11.80;88.90;;;;;;5056300;28;20151;-75
2024/04/02 09:58:06;;;;;;;16.70;3.90;;;11.60;89.50;;;;;;5058078;28;20062;-76
2024/04/02 10:00:33;;;;;;;12.13;3.67;;;11.70;89.60;;;;;;5056587;28;20024;-75
2024/04/02 10:03:02;;;;;;;16.83;4.72;;;11.70;89.90;;;;;;5056094;28;20104;-77
2024/04/02 10:05:28;;;;;;;13.63;3.58;;;11.70;90.00;;;;;;5057787;28;20032;-77
2024/04/02 10:07:54;;;;;;;13.68;3.55;;;11.70;90.00;;;;;;5054780;28;20105;-78
2024/04/02 10:10:29;;;;;;;10.75;3.95;;;11.60;90.30;;;;;;5058004;28;20078;-77
2024/04/02 10:12:56;;;;;;;15.05;4.28;;;11.50;90.40;;;;;;5058660;28;20051;-77
2024/04/02 10:15:23;;;;;;;14.73;3.85;;;11.50;90.80;;;;;;5038676;28;20028;-74
2024/04/02 10:17:59;;;;;;;14.50;3.75;;;11.40;91.00;;;;;;5051629;28;20040;-76
2024/04/02 10:20:26;;;;;;;9.82;3.15;;;11.30;91.40;;;;;;5055310;28;20099;-76
2024/04/02 10:22:53;;;;;;;11.48;4.07;;;11.30;91.90;;;;;;5054119;28;20380;-75
2024/04/02 10:25:19;;;;;;;11.65;3.72;;;11.20;91.90;;;;;;5057778;28;20087;-75
2024/04/02 10:27:47;;;;;;;15.55;4.47;;;11.20;92.00;;;;;;5058265;28;20040;-75
2024/04/02 10:30:17;;;;;;;15.38;3.67;;;11.40;92.40;;;;;;5052988;28;20027;-74
2024/04/02 10:32:44;;;;;;;14.98;4.43;;;11.50;92.40;;;;;;5044599;28;20495;-76
2024/04/02 10:35:30;;;;;;;14.43;3.85;;;11.70;92.10;;;;;;5043770;28;20502;-77
2024/04/02 10:37:58;;;;;;;18.30;3.83;;;12.00;91.70;;;;;;5045245;28;20024;-76
2024/04/02 10:40:25;;;;;;;12.75;4.15;;;12.10;90.90;;;;;;5052198;28;20918;-76
2024/04/02 10:42:52;;;;;;;13.02;4.20;;;12.20;89.80;;;;;;5053162;28;20461;-75
2024/04/02 10:45:19;;;;;;;11.57;3.50;;;12.20;89.90;;;;;;5044345;28;20607;-77
2024/04/02 10:47:50;;;;;;;17.00;4.13;;;12.20;89.40;;;;;;5052345;28;20068;-76
2024/04/02 10:50:17;;;;;;;18.80;4.70;;;12.20;89.40;;;;;;5052342;28;20115;-76
2024/04/02 10:52:43;;;;;;;18.80;5.80;;;12.10;89.30;;;;;;5055694;28;20563;-76
2024/04/02 10:55:10;;;;;;;13.10;3.63;;;12.10;89.00;;;;;;5057300;28;20048;-75
2024/04/02 10:57:37;;;;;;;14.75;4.00;;;12.10;88.50;;;;;;5054522;28;20029;-76
2024/04/02 11:00:04;;;;;;;14.85;4.65;;;12.10;88.00;;;;;;5040352;28;20156;-76
2024/04/02 11:02:33;;;;;;;14.40;4.53;;;12.00;88.30;;;;;;5056715;28;20957;-75
2024/04/02 11:05:00;;;;;;;17.35;5.07;;;11.90;88.80;;;;;;5056849;28;20112;-76
2024/04/02 11:07:29;;;;;;;15.35;3.97;;;11.80;88.90;;;;;;5058257;28;20123;-77
2024/04/02 11:09:56;;;;;;;13.90;4.00;;;11.70;89.80;;;;;;5057372;28;20035;-75
2024/04/02 11:12:23;;;;;;;16.13;3.95;;;11.60;90.00;;;;;;5055839;28;20044;-76
2024/04/02 11:14:53;;;;;;;10.70;4.00;;;11.80;90.40;;;;;;5057375;28;20060;-77
2024/04/02 11:17:19;;;;;;;14.38;4.32;;;11.90;90.60;;;;;;5055599;28;20485;-76
2024/04/02 11:19:45;;;;;;;11.73;3.88;;;12.10;90.20;;;;;;5039638;28;20107;-78
2024/04/02 11:25:13;;;;;;;15.30;4.07;;;12.20;89.30;;;;;;5059898;28;20056;-77
2024/04/02 11:27:43;;;;;;;10.95;3.75;;;12.30;89.10;;;;;;5056215;28;20032;-78
2024/04/02 11:30:15;;;;;;;9.82;3.70;;;12.20;88.90;;;;;;5060236;28;20032;-77
2024/04/02 11:32:41;;;;;;;14.73;3.58;;;12.40;88.50;;;;;;5029815;28;20354;-79
2024/04/02 11:35:11;;;;;;;8.10;3.20;;;12.40;87.80;;;;;;5057880;28;20319;-78
2024/04/02 11:37:37;;;;;;;14.07;3.90;;;12.50;88.00;;;;;;5058122;28;20037;-77
2024/04/02 11:40:04;;;;;;;13.57;4.10;;;12.70;87.60;;;;;;5057687;28;20039;-77
2024/04/02 11:42:31;;;;;;;11.85;3.22;;;13.10;87.70;;;;;;5055328;28;20044;-78
2024/04/02 11:45:03;;;;;;;11.98;3.47;;;13.10;86.50;;;;;;5056394;28;20219;-77
2024/04/02 11:47:30;;;;;;;11.75;3.60;;;13.00;85.90;;;;;;5057709;28;20070;-78
2024/04/02 11:49:56;;;;;;;12.10;3.40;;;12.80;86.50;;;;;;5063062;28;20112;-78
2024/04/02 11:52:22;;;;;;;9.05;3.58;;;12.70;86.40;;;;;;5058305;28;20451;-78
2024/04/02 11:54:48;;;;;;;11.15;3.13;;;12.60;87.00;;;;;;5058535;28;20827;-77
2024/04/02 12:00:07;;;;;;;11.15;3.70;;;12.70;87.00;;;;;;5053339;28;20067;-77
2024/04/02 12:02:33;;;;;;;13.65;3.95;;;12.70;86.90;;;;;;5057876;28;20416;-78
2024/04/02 12:04:59;;;;;;;15.38;3.92;;;12.60;87.30;;;;;;5059022;28;20033;-76
2024/04/02 12:07:28;;;;;;;11.93;3.83;;;12.70;87.70;;;;;;5059280;28;20036;-76
2024/04/02 12:09:58;;;;;;;13.25;3.33;;;12.60;87.90;;;;;;5060394;28;20031;-76
2024/04/02 12:12:24;;;;;;;14.68;3.67;;;12.60;88.00;;;;;;5063592;28;20301;-77
2024/04/02 12:14:51;;;;;;;13.70;3.90;;;12.60;88.10;;;;;;5057669;28;20055;-77
2024/04/02 12:17:17;;;;;;;11.02;3.50;;;12.60;88.30;;;;;;5056163;28;20099;-77
2024/04/02 12:19:43;;;;;;;12.05;3.60;;;12.40;88.60;;;;;;5057240;28;20029;-77
2024/04/02 12:22:11;;;;;;;13.85;4.45;;;12.40;89.00;;;;;;5057977;28;20195;-75
2024/04/02 12:24:37;;;;;;;15.43;4.40;;;12.40;89.60;;;;;;5054396;28;20031;-77
2024/04/02 12:27:03;;;;;;;17.65;4.00;;;12.40;89.80;;;;;;5055093;28;20029;-75
2024/04/02 12:29:29;;;;;;;15.73;4.72;;;12.40;90.10;;;;;;5054466;28;20044;-75
2024/04/02 12:31:54;;;;;;;17.35;4.05;;;12.30;89.80;;;;;;5055511;28;20130;-75
2024/04/02 12:34:22;;;;;;;12.80;3.78;;;12.30;90.10;;;;;;5054648;28;20039;-77
2024/04/02 12:36:49;;;;;;;14.90;4.18;;;12.20;90.60;;;;;;5053812;28;20461;-76
2024/04/02 12:39:14;;;;;;;19.80;4.40;;;12.20;90.90;;;;;;5054638;28;20052;-75
2024/04/02 12:41:41;;;;;;;18.15;4.55;;;12.10;91.40;;;;;;5055432;28;20086;-76
2024/04/02 12:44:07;;;;;;;14.15;4.90;;;11.90;91.50;;;;;;5056505;28;20096;-76
2024/04/02 12:46:35;;;;;;;12.40;4.50;;;12.00;91.70;;;;;;5054585;28;20333;-76
2024/04/02 12:49:11;;;;;;;15.25;5.25;;;12.00;91.90;;;;;;5054976;28;20012;-75